Time;durP1;ratioP1;P1;durP2;ratioP2;P2;SDS_P1;SDS_P2;PMS_P1;PMS_P2;Temp;Humidity;BMP_temperature;BMP_pressure;BME280_temperature;BME280_humidity;BME280_pressure;Samples;Min_cycle;Max_cycle;Signal;HPM_P1;HPM_P2
2023/04/20 00:00:01;;;;;;;;;;;8.20;99.90;;;;;;4976298;28;20271;-87
2023/04/20 00:02:26;;;;;;;;;;;8.10;99.90;;;;;;4976663;28;19933;-87
2023/04/20 00:04:52;;;;;;;;;;;8.10;99.90;;;;;;4977234;28;19926;-87
2023/04/20 00:07:18;;;;;;;;;;;8.10;99.90;;;;;;4977228;28;20359;-87
2023/04/20 00:09:44;;;;;;;;;;;8.00;99.90;;;;;;4977205;28;19926;-91
2023/04/20 00:12:09;;;;;;;;;;;8.10;99.90;;;;;;4959445;28;20009;-88
2023/04/20 00:14:35;;;;;;;;;;;8.00;99.90;;;;;;4976419;28;19933;-87
2023/04/20 00:17:03;;;;;;;;;;;8.00;99.90;;;;;;4976227;28;20321;-87
2023/04/20 00:19:32;;;;;;;;;;;7.90;99.90;;;;;;4976927;28;19930;-88
2023/04/20 00:21:57;;;;;;;;;;;8.00;99.90;;;;;;4976279;28;20088;-88
2023/04/20 00:24:23;;;;;;;;;;;7.90;99.90;;;;;;4976124;28;19984;-87
2023/04/20 00:26:49;;;;;;;;;;;8.00;99.90;;;;;;4975883;28;19976;-88
2023/04/20 00:29:14;;;;;;;;;;;8.10;99.90;;;;;;4976048;28;19934;-87
2023/04/20 00:31:40;;;;;;;;;;;8.10;99.90;;;;;;4975850;28;20318;-87
2023/04/20 00:34:05;;;;;;;;;;;8.00;99.90;;;;;;4976025;28;19930;-87
2023/04/20 00:36:31;;;;;;;;;;;8.00;99.90;;;;;;4975377;28;19973;-87
2023/04/20 00:38:57;;;;;;;;;;;8.10;99.90;;;;;;4976700;28;19930;-86
2023/04/20 00:41:25;;;;;;;;;;;8.10;99.90;;;;;;4975895;28;19926;-89
2023/04/20 00:43:51;;;;;;;;;;;8.10;99.90;;;;;;4975793;28;19926;-89
2023/04/20 00:46:17;;;;;;;;;;;8.20;99.90;;;;;;4975829;28;19926;-87
2023/04/20 00:48:43;;;;;;;;;;;8.30;99.90;;;;;;4975927;28;19926;-87
2023/04/20 00:51:09;;;;;;;;;;;8.20;99.90;;;;;;4976257;28;19976;-88
2023/04/20 00:53:35;;;;;;;;;;;8.20;99.90;;;;;;4975347;28;19948;-87
2023/04/20 00:56:01;;;;;;;;;;;8.10;99.90;;;;;;4975845;28;19926;-88
2023/04/20 00:58:27;;;;;;;;;;;8.20;99.90;;;;;;4975550;28;19926;-87
2023/04/20 01:00:52;;;;;;;;;;;8.20;99.90;;;;;;4974921;28;19937;-87
2023/04/20 01:03:18;;;;;;;;;;;8.30;99.90;;;;;;4975416;28;19930;-87
2023/04/20 01:05:44;;;;;;;;;;;8.30;99.90;;;;;;4975310;28;19933;-87
2023/04/20 01:08:10;;;;;;;;;;;8.30;99.90;;;;;;4976213;28;20017;-87
2023/04/20 01:10:36;;;;;;;;;;;8.20;99.90;;;;;;4959205;28;19926;-87
2023/04/20 01:13:02;;;;;;;;;;;8.20;99.90;;;;;;4975021;28;19935;-87
2023/04/20 01:15:28;;;;;;;;;;;8.20;99.90;;;;;;4975114;28;19980;-88
2023/04/20 01:17:53;;;;;;;;;;;8.30;99.90;;;;;;4974822;28;19934;-87
2023/04/20 01:20:19;;;;;;;;;;;8.20;99.90;;;;;;4974780;28;19926;-87
2023/04/20 01:22:52;;;;;;;;;;;8.10;99.90;;;;;;4975292;28;20002;-88
2023/04/20 01:25:19;;;;;;;;;;;8.20;99.90;;;;;;4973911;28;20349;-87
2023/04/20 01:27:44;;;;;;;;;;;8.10;99.90;;;;;;4974953;28;20017;-88
2023/04/20 01:30:10;;;;;;;;;;;6.50;99.90;;;;;;4974666;28;20017;-88
2023/04/20 01:32:36;;;;;;;;;;;8.20;99.90;;;;;;4958725;28;19933;-87
2023/04/20 01:35:04;;;;;;;;;;;8.10;99.90;;;;;;4974629;28;20385;-87
2023/04/20 01:37:30;;;;;;;;;;;7.00;99.90;;;;;;4974738;28;19934;-88
2023/04/20 01:39:56;;;;;;;;;;;8.10;99.90;;;;;;4975320;28;20275;-87
2023/04/20 01:42:21;;;;;;;;;;;8.00;99.90;;;;;;4974950;28;20362;-87
2023/04/20 01:44:47;;;;;;;;;;;8.10;99.90;;;;;;4974557;28;19926;-87
2023/04/20 01:47:13;;;;;;;;;;;8.00;99.90;;;;;;4974381;28;19933;-88
2023/04/20 01:49:39;;;;;;;;;;;8.00;99.90;;;;;;4974782;28;19937;-87
2023/04/20 01:52:05;;;;;;;;;;;8.00;99.90;;;;;;4974467;28;19932;-87
2023/04/20 01:54:31;;;;;;;;;;;7.90;99.90;;;;;;4974636;28;19926;-87
2023/04/20 01:56:56;;;;;;;;;;;7.80;99.90;;;;;;4974321;28;20413;-87
2023/04/20 01:59:22;;;;;;;;;;;7.80;99.90;;;;;;4974295;28;19926;-88
2023/04/20 02:01:48;;;;;;;;;;;7.80;99.90;;;;;;4991240;28;19977;-87
2023/04/20 02:04:16;;;;;;;;;;;7.80;99.90;;;;;;4974360;28;20375;-87
2023/04/20 02:06:41;;;;;;;;;;;7.80;99.90;;;;;;4974360;28;19953;-87
2023/04/20 02:09:08;;;;;;;;;;;7.60;99.90;;;;;;4974429;28;19930;-87
2023/04/20 02:11:34;;;;;;;;;;;7.60;99.90;;;;;;4974632;28;19933;-88
2023/04/20 02:13:59;;;;;;;;;;;7.60;99.90;;;;;;4974210;28;20012;-87
2023/04/20 02:16:28;;;;;;;;;;;7.60;99.90;;;;;;4974172;28;20097;-87
2023/04/20 02:18:54;;;;;;;;;;;7.60;99.90;;;;;;4973926;28;19926;-87
2023/04/20 02:21:20;;;;;;;;;;;7.60;99.90;;;;;;4973859;28;19937;-86
2023/04/20 02:23:45;;;;;;;;;;;7.50;99.90;;;;;;4974180;28;19969;-88
2023/04/20 02:26:15;;;;;;;;;;;7.50;99.90;;;;;;4974048;28;19926;-88
2023/04/20 02:28:41;;;;;;;;;;;7.50;99.90;;;;;;4957941;28;20016;-87
2023/04/20 02:31:07;;;;;;;;;;;7.50;99.90;;;;;;4973939;28;20405;-88
2023/04/20 02:33:32;;;;;;;;;;;7.60;99.90;;;;;;4973545;28;19949;-87
2023/04/20 02:35:58;;;;;;;;;;;7.60;99.90;;;;;;4973015;28;20021;-87
2023/04/20 02:38:23;;;;;;;;;;;7.80;99.90;;;;;;4973495;28;19926;-87
2023/04/20 02:40:49;;;;;;;;;;;7.80;99.90;;;;;;4973993;28;19930;-87
2023/04/20 02:43:20;;;;;;;;;;;7.70;99.90;;;;;;4957818;28;19933;-87
2023/04/20 02:45:45;;;;;;;;;;;7.80;99.90;;;;;;4973899;28;19977;-88
2023/04/20 02:48:13;;;;;;;;;;;7.90;99.90;;;;;;4973836;28;19969;-87
2023/04/20 02:50:40;;;;;;;;;;;7.80;99.90;;;;;;4973626;28;20444;-87
2023/04/20 02:53:06;;;;;;;;;;;7.90;99.90;;;;;;4973743;28;19974;-88
2023/04/20 02:55:31;;;;;;;;;;;7.90;99.90;;;;;;4973932;28;20366;-88
2023/04/20 02:57:57;;;;;;;;;;;8.00;99.90;;;;;;4973679;28;19926;-88
2023/04/20 03:00:25;;;;;;;;;;;7.90;99.90;;;;;;4973099;28;19926;-87
2023/04/20 03:02:50;;;;;;;;;;;7.90;99.90;;;;;;4973683;28;19926;-88
2023/04/20 03:05:16;;;;;;;;;;;7.90;99.90;;;;;;4973663;28;19933;-88
2023/04/20 03:07:42;;;;;;;;;;;7.90;99.90;;;;;;4959400;28;20417;-88
2023/04/20 03:10:08;;;;;;;;;;;8.10;99.90;;;;;;4975937;28;20020;-90
2023/04/20 03:12:34;;;;;;;;;;;8.10;99.90;;;;;;4959810;28;20259;-87
2023/04/20 03:15:00;;;;;;;;;;;8.20;99.90;;;;;;4973407;28;19933;-87
2023/04/20 03:17:26;;;;;;;;;;;8.10;99.90;;;;;;4957895;28;19926;-87
2023/04/20 03:19:51;;;;;;;;;;;8.20;99.90;;;;;;4973890;28;19930;-87
2023/04/20 03:22:20;;;;;;;;;;;8.30;99.90;;;;;;4957268;28;19926;-87
2023/04/20 03:24:46;;;;;;;;;;;8.20;99.90;;;;;;4974994;28;19933;-88
2023/04/20 03:27:12;;;;;;;;;;;8.30;99.90;;;;;;4974033;28;19926;-87
2023/04/20 03:29:38;;;;;;;;;;;8.20;99.90;;;;;;4973307;28;19932;-88
2023/04/20 03:32:03;;;;;;;;;;;8.30;99.90;;;;;;4974118;28;19981;-88
2023/04/20 03:34:29;;;;;;;;;;;8.30;99.90;;;;;;4973403;28;19930;-88
2023/04/20 03:36:55;;;;;;;;;;;8.30;99.90;;;;;;4957371;28;19926;-89
2023/04/20 03:39:20;;;;;;;;;;;8.30;99.90;;;;;;4973362;28;19926;-87
2023/04/20 03:41:46;;;;;;;;;;;8.30;99.90;;;;;;4973347;28;19991;-88
2023/04/20 03:44:12;;;;;;;;;;;8.30;99.90;;;;;;4973297;28;19934;-88
2023/04/20 03:46:38;;;;;;;;;;;8.20;99.90;;;;;;4956966;28;19956;-87
2023/04/20 03:49:04;;;;;;;;;;;8.20;99.90;;;;;;4975862;28;19977;-89
2023/04/20 03:51:30;;;;;;;;;;;8.10;99.90;;;;;;4976951;28;19927;-87
2023/04/20 03:53:55;;;;;;;;;;;8.20;99.90;;;;;;4977212;28;19947;-89
2023/04/20 03:56:21;;;;;;;;;;;8.20;99.90;;;;;;4976550;28;20243;-87
2023/04/20 03:58:46;;;;;;;;;;;8.10;99.90;;;;;;4977306;28;19926;-86
2023/04/20 04:01:12;;;;;;;;;;;8.20;99.90;;;;;;4976193;28;19932;-87
2023/04/20 04:03:38;;;;;;;;;;;8.20;99.90;;;;;;4977365;28;19934;-87
2023/04/20 04:06:03;;;;;;;;;;;8.20;99.90;;;;;;4976506;28;20371;-88
2023/04/20 04:08:30;;;;;;;;;;;8.30;99.90;;;;;;4976597;28;19981;-88
2023/04/20 04:10:56;;;;;;;;;;;8.40;99.90;;;;;;4976712;28;19933;-87
2023/04/20 04:13:22;;;;;;;;;;;8.20;99.90;;;;;;4976114;28;19930;-88
2023/04/20 04:15:48;;;;;;;;;;;8.50;99.90;;;;;;4976334;28;19926;-86
2023/04/20 04:18:13;;;;;;;;;;;8.20;99.90;;;;;;4976377;28;20307;-87
2023/04/20 04:20:39;;;;;;;;;;;8.20;99.90;;;;;;4976568;28;19949;-89
2023/04/20 04:23:05;;;;;;;;;;;8.10;99.90;;;;;;4976315;28;19926;-88
2023/04/20 04:25:31;;;;;;;;;;;8.10;99.90;;;;;;4960018;28;19972;-87
2023/04/20 04:27:56;;;;;;;;;;;8.10;99.90;;;;;;4976136;28;20414;-88
2023/04/20 04:30:22;;;;;;;;;;;8.10;99.90;;;;;;4976151;28;20033;-88
2023/04/20 04:32:49;;;;;;;;;;;8.00;99.90;;;;;;4976179;28;19930;-89
2023/04/20 04:35:15;;;;;;;;;;;7.90;99.90;;;;;;4976768;28;19933;-88
2023/04/20 04:37:41;;;;;;;;;;;8.10;99.90;;;;;;4976005;28;19926;-89
2023/04/20 04:40:07;;;;;;;;;;;8.10;99.90;;;;;;4976674;28;19950;-87
2023/04/20 04:42:34;;;;;;;;;;;8.00;99.90;;;;;;4976589;28;19926;-87
2023/04/20 04:45:01;;;;;;;;;;;8.00;99.90;;;;;;4975983;28;19977;-88
2023/04/20 04:47:29;;;;;;;;;;;7.90;99.90;;;;;;4976049;28;20022;-88
2023/04/20 04:49:55;;;;;;;;;;;8.00;99.90;;;;;;4960095;28;20310;-88
2023/04/20 04:52:21;;;;;;;;;;;8.10;99.90;;;;;;4975760;28;20025;-87
2023/04/20 04:54:48;;;;;;;;;;;7.90;99.90;;;;;;4975748;28;19930;-87
2023/04/20 04:57:13;;;;;;;;;;;7.90;99.90;;;;;;4976306;28;19977;-89
2023/04/20 04:59:39;;;;;;;;;;;7.90;99.90;;;;;;4958581;28;20413;-89
2023/04/20 05:02:05;;;;;;;;;;;7.90;99.90;;;;;;4975198;28;20363;-88
2023/04/20 05:04:30;;;;;;;;;;;7.90;99.90;;;;;;4975483;28;19969;-88
2023/04/20 05:06:56;;;;;;;;;;;7.80;99.90;;;;;;4975744;28;20381;-89
2023/04/20 05:09:22;;;;;;;;;;;7.80;99.90;;;;;;4975427;28;20295;-87
2023/04/20 05:11:47;;;;;;;;;;;7.60;99.90;;;;;;4975624;28;19926;-87
2023/04/20 05:14:13;;;;;;;;;;;7.10;99.90;;;;;;4976064;28;20012;-87
2023/04/20 05:16:38;;;;;;;;;;;7.50;99.90;;;;;;4975334;28;20073;-87
2023/04/20 05:19:04;;;;;;;;;;;7.50;99.90;;;;;;4975161;28;19933;-87
2023/04/20 05:21:30;;;;;;;;;;;7.50;99.90;;;;;;4959847;28;19969;-87
2023/04/20 05:23:55;;;;;;;;;;;7.50;99.90;;;;;;4975120;28;19930;-88
2023/04/20 05:26:26;;;;;;;;;;;7.50;99.90;;;;;;4959185;28;19926;-89
2023/04/20 05:28:51;;;;;;;;;;;7.40;99.90;;;;;;4974684;28;19926;-88
2023/04/20 05:31:19;;;;;;;;;;;7.40;99.90;;;;;;4974898;28;19926;-88
2023/04/20 05:33:45;;;;;;;;;;;7.20;99.90;;;;;;4975225;28;20358;-87
2023/04/20 05:36:10;;;;;;;;;;;7.30;99.90;;;;;;4958280;28;19933;-87
2023/04/20 05:38:36;;;;;;;;;;;7.40;99.90;;;;;;4974829;28;19949;-88
2023/04/20 05:41:02;;;;;;;;;;;7.40;99.90;;;;;;4974814;28;19981;-87
2023/04/20 05:43:27;;;;;;;;;;;7.40;99.90;;;;;;4974795;28;19988;-88
2023/04/20 05:45:53;;;;;;;;;;;7.40;99.90;;;;;;4975354;28;20013;-89
2023/04/20 05:48:21;;;;;;;;;;;5.40;99.90;;;;;;4974815;28;20356;-92
2023/04/20 05:50:50;;;;;;;;;;;8.00;99.90;;;;;;4959552;28;19973;-91
2023/04/20 05:53:16;;;;;;;;;;;6.10;99.90;;;;;;4958249;28;19926;-87
2023/04/20 05:55:44;;;;;;;;;;;7.40;99.90;;;;;;4974667;28;19948;-89
2023/04/20 05:58:10;;;;;;;;;;;7.30;99.90;;;;;;4974257;28;19926;-88
2023/04/20 06:00:36;;;;;;;;;;;7.30;99.90;;;;;;4974240;28;20381;-89
2023/04/20 06:03:05;;;;;;;;;;;7.30;99.90;;;;;;4974771;28;19926;-90
2023/04/20 06:05:33;;;;;;;;;;;7.40;99.90;;;;;;4958470;28;19941;-91
2023/04/20 06:07:58;;;;;;;;;;;7.40;99.90;;;;;;4974610;28;19989;-88
2023/04/20 06:10:32;;;;;;;;;;;7.40;99.90;;;;;;4973710;28;19930;-90
2023/04/20 06:13:00;;;;;;;;;;;7.40;99.90;;;;;;4974547;28;20358;-93
2023/04/20 06:15:28;;;;;;;;;;;7.40;99.90;;;;;;4974393;28;19969;-91
2023/04/20 06:17:54;;;;;;;;;;;6.80;99.90;;;;;;4974173;28;19930;-91
2023/04/20 06:20:20;;;;;;;;;;;7.50;99.90;;;;;;4958826;28;19926;-90
2023/04/20 06:22:45;;;;;;;;;;;7.30;99.90;;;;;;4974766;28;19933;-89
2023/04/20 06:25:12;;;;;;;;;;;7.30;99.90;;;;;;4974586;28;19926;-88
2023/04/20 06:27:38;;;;;;;;;;;7.20;99.90;;;;;;4974565;28;19981;-89
2023/04/20 06:30:04;;;;;;;;;;;7.20;99.90;;;;;;4974516;28;20374;-88
2023/04/20 06:32:29;;;;;;;;;;;7.30;99.90;;;;;;4973825;28;19926;-88
2023/04/20 06:34:55;;;;;;;;;;;7.30;99.90;;;;;;4973634;28;20366;-88
2023/04/20 06:37:21;;;;;;;;;;;7.30;99.90;;;;;;4958023;28;19926;-88
2023/04/20 06:39:46;;;;;;;;;;;7.20;99.90;;;;;;4973601;28;20394;-89
2023/04/20 06:42:12;;;;;;;;;;;7.10;99.90;;;;;;4975452;28;20252;-89
2023/04/20 06:44:45;;;;;;;;;;;7.20;99.90;;;;;;4960052;28;19937;-89
2023/04/20 06:47:42;;;;;;;;;;;;;;;;;;;;;
2023/04/20 06:50:10;;;;;;;;;;;7.30;99.90;;;;;;4974193;28;19932;-89
2023/04/20 06:55:27;;;;;;;;;;;6.90;99.90;;;;;;4985693;28;20021;-89
2023/04/20 07:00:52;;;;;;;;;;;7.10;99.90;;;;;;4972759;28;19926;-89
2023/04/20 07:03:26;;;;;;;;;;;6.90;99.90;;;;;;4975365;28;19954;-90
2023/04/20 07:06:14;;;;;;;;;;;;;;;;;;;;;
2023/04/20 07:08:47;;;;;;;;;;;5.30;99.90;;;;;;4978168;28;19926;-90
2023/04/20 07:11:18;;;;;;;;;;;6.80;99.90;;;;;;4957031;28;19945;-91
2023/04/20 07:13:51;;;;;;;;;;;7.00;99.90;;;;;;4973138;28;19926;-90
2023/04/20 07:16:28;;;;;;;;;;;7.00;99.90;;;;;;4957375;28;19934;-88
2023/04/20 07:18:54;;;;;;;;;;;7.00;99.90;;;;;;4956824;28;19926;-89
2023/04/20 07:21:20;;;;;;;;;;;6.90;99.90;;;;;;4973365;28;19926;-90
2023/04/20 07:23:49;;;;;;;;;;;6.70;99.90;;;;;;4960942;28;19930;-90
2023/04/20 07:26:17;;;;;;;;;;;6.60;99.90;;;;;;4977219;28;19983;-89
2023/04/20 07:28:48;;;;;;;;;;;7.00;99.90;;;;;;4977260;28;20005;-92
2023/04/20 07:31:22;;;;;;;;;;;6.60;99.90;;;;;;4960905;28;19926;-91
2023/04/20 07:33:57;;;;;;;;;;;6.50;99.90;;;;;;4976502;28;19933;-89
2023/04/20 07:36:25;;;;;;;;;;;6.60;99.90;;;;;;4977758;28;19926;-90
2023/04/20 07:38:53;;;;;;;;;;;6.60;99.90;;;;;;4960998;28;19981;-87
2023/04/20 07:41:21;;;;;;;;;;;6.50;99.90;;;;;;4976838;28;20302;-90
2023/04/20 07:43:57;;;;;;;;;;;6.40;99.90;;;;;;4977148;28;19981;-90
2023/04/20 07:46:23;;;;;;;;;;;7.00;99.90;;;;;;4977179;28;20316;-88
2023/04/20 07:48:51;;;;;;;;;;;6.70;99.90;;;;;;4960396;28;19980;-89
2023/04/20 07:51:19;;;;;;;;;;;6.50;99.90;;;;;;4976570;28;19961;-91
2023/04/20 07:54:02;;;;;;;;;;;6.70;99.90;;;;;;4976127;28;19926;-90
2023/04/20 07:56:33;;;;;;;;;;;6.60;99.90;;;;;;4977167;28;20033;-89
2023/04/20 07:59:01;;;;;;;;;;;6.60;99.90;;;;;;4976291;28;20310;-91
2023/04/20 08:01:37;;;;;;;;;;;6.80;99.90;;;;;;4976002;28;19930;-89
2023/04/20 08:04:08;;;;;;;;;;;6.70;99.90;;;;;;4960217;28;20366;-90
2023/04/20 08:06:33;;;;;;;;;;;6.80;99.90;;;;;;4977016;28;20017;-90
2023/04/20 08:09:06;;;;;;;;;;;6.60;99.90;;;;;;4960523;28;19984;-90
2023/04/20 08:11:32;;;;;;;;;;;6.50;99.90;;;;;;4960369;28;19926;-88
2023/04/20 08:13:58;;;;;;;;;;;6.70;99.90;;;;;;4976547;28;20062;-89
2023/04/20 08:16:36;;;;;;;;;;;;;;;;;;;;;
2023/04/20 08:19:12;;;;;;;;;;;6.60;99.90;;;;;;4976511;28;20231;-90
2023/04/20 08:21:38;;;;;;;;;;;6.80;99.90;;;;;;4976640;28;20137;-88
2023/04/20 08:24:07;;;;;;;;;;;7.20;99.90;;;;;;4959853;28;19949;-89
2023/04/20 08:26:35;;;;;;;;;;;7.00;99.90;;;;;;4976309;28;20025;-89
2023/04/20 08:29:04;;;;;;;;;;;7.10;99.90;;;;;;4976628;28;19961;-89
2023/04/20 08:31:33;;;;;;;;;;;5.20;99.90;;;;;;4976001;28;20008;-90
2023/04/20 08:33:58;;;;;;;;;;;7.50;99.90;;;;;;4959029;28;19957;-90
2023/04/20 08:36:40;;;;;;;;;;;7.20;99.90;;;;;;4961133;28;19926;-89
2023/04/20 08:39:13;;;;;;;;;;;7.30;99.90;;;;;;4976192;28;19977;-91
2023/04/20 08:41:52;;;;;;;;;;;7.00;99.90;;;;;;4982693;28;19980;-90
2023/04/20 08:44:40;;;;;;;;;;;9.00;99.90;;;;;;4981104;28;19972;-92
2023/04/20 08:47:11;;;;;;;;;;;7.10;99.90;;;;;;4976313;28;20330;-93
2023/04/20 08:49:39;;;;;;;;;;;7.30;99.90;;;;;;4977268;28;20013;-90
2023/04/20 08:52:10;;;;;;;;;;;7.50;99.90;;;;;;4960556;28;19930;-91
2023/04/20 08:54:39;;;;;;;;;;;7.40;99.90;;;;;;4960171;28;20343;-91
2023/04/20 08:57:16;;;;;;;;;;;8.60;99.90;;;;;;4960232;28;20408;-92
2023/04/20 08:59:44;;;;;;;;;;;7.50;99.90;;;;;;4960071;28;20250;-91
2023/04/20 09:02:20;;;;;;;;;;;7.10;99.90;;;;;;4959998;28;19926;-93
2023/04/20 09:04:59;;;;;;;;;;;9.80;99.90;;;;;;4976490;28;19934;-91
2023/04/20 09:07:30;;;;;;;;;;;7.60;99.90;;;;;;4976475;28;20370;-91
2023/04/20 09:09:59;;;;;;;;;;;7.30;99.90;;;;;;4960541;28;20016;-90
2023/04/20 09:12:36;;;;;;;;;;;;;;;;;;;;;
2023/04/20 09:15:22;;;;;;;;;;;7.90;99.90;;;;;;4976085;28;20253;-89
2023/04/20 09:17:51;;;;;;;;;;;8.50;99.90;;;;;;4957983;28;19973;-91
2023/04/20 09:20:35;;;;;;;;;;;6.70;99.90;;;;;;4959141;28;19981;-91
2023/04/20 09:23:12;;;;;;;;;;;7.50;99.90;;;;;;4960375;28;19929;-92
2023/04/20 09:25:52;;;;;;;;;;;;;;;;;;;;;
2023/04/20 09:28:36;;;;;;;;;;;6.50;99.90;;;;;;4975444;28;19933;-89
2023/04/20 09:31:04;;;;;;;;;;;8.10;99.90;;;;;;4959733;28;19932;-90
2023/04/20 09:33:42;;;;;;;;;;;;;;;;;;;;;
2023/04/20 09:36:16;;;;;;;;;;;6.90;99.90;;;;;;4975037;28;19977;-91
2023/04/20 09:38:47;;;;;;;;;;;7.70;99.90;;;;;;4975284;28;20278;-90
2023/04/20 09:41:23;;;;;;;;;;;8.00;99.90;;;;;;4975173;28;19927;-90
2023/04/20 09:43:54;;;;;;;;;;;8.10;99.90;;;;;;4959319;28;20479;-88
2023/04/20 09:46:22;;;;;;;;;;;8.20;99.90;;;;;;4957586;28;20306;-90
2023/04/20 09:48:51;;;;;;;;;;;8.40;99.90;;;;;;4958457;28;19949;-89
2023/04/20 09:51:17;;;;;;;;;;;8.40;99.90;;;;;;4958177;28;19926;-91
2023/04/20 09:53:45;;;;;;;;;;;8.60;99.90;;;;;;4958040;28;19933;-91
2023/04/20 09:56:11;;;;;;;;;;;8.30;99.90;;;;;;4974341;28;19977;-89
2023/04/20 09:58:37;;;;;;;;;;;8.20;99.90;;;;;;4958219;28;19981;-90
2023/04/20 10:01:03;;;;;;;;;;;8.20;99.90;;;;;;4973842;28;19926;-89
2023/04/20 10:03:28;;;;;;;;;;;8.20;99.90;;;;;;4957826;28;19953;-89
2023/04/20 10:06:01;;;;;;;;;;;8.30;99.90;;;;;;4974811;28;19926;-88
2023/04/20 10:08:27;;;;;;;;;;;8.20;99.90;;;;;;4974380;28;19933;-90
2023/04/20 10:10:55;;;;;;;;;;;8.40;99.90;;;;;;4960141;28;19926;-92
2023/04/20 10:13:31;;;;;;;;;;;8.40;99.90;;;;;;4963918;28;19926;-88
2023/04/20 10:16:04;;;;;;;;;;;8.40;99.90;;;;;;4958705;28;19933;-90
2023/04/20 10:18:30;;;;;;;;;;;8.30;99.90;;;;;;4974300;28;19926;-89
2023/04/20 10:21:08;;;;;;;;;;;8.60;99.90;;;;;;4974374;28;19984;-90
2023/04/20 10:23:34;;;;;;;;;;;8.20;99.90;;;;;;4974651;28;19949;-90
2023/04/20 10:26:01;;;;;;;;;;;8.20;99.90;;;;;;4957526;28;20375;-86
2023/04/20 10:28:38;;;;;;;;;;;8.20;99.90;;;;;;4973583;28;20017;-88
2023/04/20 10:31:06;;;;;;;;;;;7.80;99.90;;;;;;4957501;28;19926;-88
2023/04/20 10:33:31;;;;;;;;;;;7.90;99.90;;;;;;4957017;28;19984;-86
2023/04/20 10:35:58;;;;;;;;;;;7.80;99.90;;;;;;4973549;28;19926;-87
2023/04/20 10:38:27;;;;;;;;;;;7.90;99.90;;;;;;4973733;28;19926;-86
2023/04/20 10:40:53;;;;;;;;;;;7.80;99.90;;;;;;4973534;28;19982;-86
2023/04/20 10:43:20;;;;;;;;;;;8.00;99.90;;;;;;4973773;28;19973;-86
2023/04/20 10:45:45;;;;;;;;;;;7.90;99.90;;;;;;4973377;28;20401;-87
2023/04/20 10:48:12;;;;;;;;;;;7.90;99.90;;;;;;4973559;28;19926;-85
2023/04/20 10:50:38;;;;;;;;;;;7.80;99.90;;;;;;4974143;28;19926;-86
2023/04/20 10:53:04;;;;;;;;;;;7.90;99.90;;;;;;4973556;28;20381;-85
2023/04/20 10:55:30;;;;;;;;;;;7.80;99.90;;;;;;4973507;28;20331;-87
2023/04/20 10:57:56;;;;;;;;;;;8.00;99.90;;;;;;4978993;28;19934;-87
2023/04/20 11:00:23;;;;;;;;;;;7.90;99.90;;;;;;4980368;28;19937;-87
2023/04/20 11:02:50;;;;;;;;;;;8.10;99.90;;;;;;4965349;28;20054;-86
2023/04/20 11:05:16;;;;;;;;;;;8.10;99.90;;;;;;4981298;28;19926;-86
2023/04/20 11:07:55;;;;;;;;;;;8.20;99.90;;;;;;4980101;28;19926;-87
2023/04/20 11:10:22;;;;;;;;;;;8.20;99.90;;;;;;4981154;28;19926;-85
2023/04/20 11:12:48;;;;;;;;;;;8.10;99.90;;;;;;4980916;28;19948;-88
2023/04/20 11:15:15;;;;;;;;;;;7.90;99.90;;;;;;4979899;28;19927;-85
2023/04/20 11:17:40;;;;;;;;;;;7.90;99.90;;;;;;4980054;28;19961;-85
2023/04/20 11:20:08;;;;;;;;;;;8.00;99.90;;;;;;4980079;28;20000;-87
2023/04/20 11:22:33;;;;;;;;;;;10.10;99.90;;;;;;4980189;28;19930;-88
2023/04/20 11:25:06;;;;;;;;;;;8.20;99.90;;;;;;4980201;28;19926;-88
2023/04/20 11:27:36;;;;;;;;;;;8.20;99.90;;;;;;4979833;28;20028;-87
2023/04/20 11:30:04;;;;;;;;;;;8.10;99.90;;;;;;4996089;28;20310;-88
2023/04/20 11:32:31;;;;;;;;;;;8.00;99.90;;;;;;4979820;28;19989;-88
2023/04/20 11:34:57;;;;;;;;;;;8.10;99.90;;;;;;4979946;28;20302;-86
2023/04/20 11:37:23;;;;;;;;;;;8.00;99.90;;;;;;4979947;28;20036;-84
2023/04/20 11:39:58;;;;;;;;;;;8.10;99.90;;;;;;4979793;28;19981;-84
2023/04/20 11:42:23;;;;;;;;;;;8.00;99.90;;;;;;4980253;28;20377;-85
2023/04/20 11:44:49;;;;;;;;;;;8.10;99.90;;;;;;4980117;28;19959;-86
2023/04/20 11:47:15;;;;;;;;;;;8.10;99.90;;;;;;4980055;28;20314;-86
2023/04/20 11:49:40;;;;;;;;;;;8.20;99.90;;;;;;4979609;28;19996;-85
2023/04/20 11:52:06;;;;;;;;;;;8.30;99.90;;;;;;4979553;28;19926;-84
2023/04/20 11:54:33;;;;;;;;;;;8.40;99.90;;;;;;4979781;28;19926;-84
2023/04/20 11:56:59;;;;;;;;;;;8.60;99.90;;;;;;4979456;28;19927;-85
2023/04/20 11:59:25;;;;;;;;;;;8.50;99.90;;;;;;4979670;28;19997;-86
2023/04/20 12:01:51;;;;;;;;;;;8.50;99.90;;;;;;4979549;28;19926;-86
2023/04/20 12:04:16;;;;;;;;;;;8.60;99.90;;;;;;4979912;28;19969;-85
2023/04/20 12:06:42;;;;;;;;;;;8.50;99.90;;;;;;4979663;28;20422;-86
2023/04/20 12:09:08;;;;;;;;;;;8.60;99.90;;;;;;4992361;28;20029;-85
2023/04/20 12:11:33;;;;;;;;;;;8.70;99.90;;;;;;4976494;28;19932;-85
2023/04/20 12:13:59;;;;;;;;;;;8.70;99.90;;;;;;4976413;28;19926;-87
2023/04/20 12:16:25;;;;;;;;;;;9.00;99.90;;;;;;4976279;28;20367;-86
2023/04/20 12:18:50;;;;;;;;;;;9.00;99.90;;;;;;4977192;28;19930;-85
2023/04/20 12:21:16;;;;;;;;;;;9.20;99.90;;;;;;4976996;28;19933;-88
2023/04/20 12:23:43;;;;;;;;;;;9.20;99.90;;;;;;4976366;28;20020;-85
2023/04/20 12:26:08;;;;;;;;;;;9.10;99.90;;;;;;4976139;28;19980;-86
2023/04/20 12:28:34;;;;;;;;;;;9.20;99.90;;;;;;4975883;28;20016;-85
2023/04/20 12:30:59;;;;;;;;;;;9.50;99.90;;;;;;4976100;28;20309;-86
2023/04/20 12:33:25;;;;;;;;;;;9.60;99.90;;;;;;4975960;28;19926;-84
2023/04/20 12:35:51;;;;;;;;;;;9.80;99.90;;;;;;4959958;28;19932;-86
2023/04/20 12:38:16;;;;;;;;;;;10.10;99.90;;;;;;4976320;28;19927;-84
2023/04/20 12:40:42;;;;;;;;;;;10.20;99.90;;;;;;4959696;28;20377;-86
2023/04/20 12:43:07;;;;;;;;;;;10.30;99.90;;;;;;4976499;28;19931;-86
2023/04/20 12:45:33;;;;;;;;;;;10.30;99.90;;;;;;4959824;28;19926;-86
2023/04/20 12:47:59;;;;;;;;;;;10.40;99.90;;;;;;4975547;28;20024;-85
2023/04/20 12:50:25;;;;;;;;;;;10.30;99.90;;;;;;4975875;28;20006;-86
2023/04/20 12:52:51;;;;;;;;;;;10.10;99.90;;;;;;4991791;28;19936;-85
2023/04/20 12:55:17;;;;;;;;;;;10.00;99.90;;;;;;4976802;28;19949;-85
2023/04/20 12:57:43;;;;;;;;;;;10.20;99.90;;;;;;4975270;28;19933;-86
2023/04/20 13:00:08;;;;;;;;;;;10.60;99.90;;;;;;4991109;28;19930;-86
2023/04/20 13:02:34;;;;;;;;;;;10.30;99.90;;;;;;4992036;28;19926;-87
2023/04/20 13:05:00;;;;;;;;;;;10.20;99.90;;;;;;4975488;28;19926;-85
2023/04/20 13:07:26;;;;;;;;;;;10.20;99.90;;;;;;4976183;28;20005;-86
2023/04/20 13:09:52;;;;;;;;;;;10.30;99.90;;;;;;4975379;28;19926;-86
2023/04/20 13:12:18;;;;;;;;;;;10.50;99.90;;;;;;4976039;28;20129;-84
2023/04/20 13:14:46;;;;;;;;;;;10.60;99.90;;;;;;4974891;28;19933;-86
2023/04/20 13:17:11;;;;;;;;;;;10.90;99.90;;;;;;4975396;28;19926;-86
2023/04/20 13:19:37;;;;;;;;;;;10.80;99.90;;;;;;4975707;28;20232;-86
2023/04/20 13:22:03;;;;;;;;;;;10.90;99.90;;;;;;4975460;28;19933;-86
2023/04/20 13:24:30;;;;;;;;;;;11.30;99.90;;;;;;4975834;28;20235;-84
2023/04/20 13:26:56;;;;;;;;;;;11.30;99.90;;;;;;4958503;28;20382;-85
2023/04/20 13:29:22;;;;;;;;;;;11.50;99.90;;;;;;4974902;28;20010;-84
2023/04/20 13:31:48;;;;;;;;;;;11.00;99.90;;;;;;4974782;28;20022;-85
2023/04/20 13:34:14;;;;;;;;;;;10.90;99.90;;;;;;4974421;28;19926;-86
2023/04/20 13:36:39;;;;;;;;;;;11.00;99.90;;;;;;4958423;28;19933;-86
2023/04/20 13:39:05;;;;;;;;;;;11.00;99.90;;;;;;4974864;28;19926;-84
2023/04/20 13:41:31;;;;;;;;;;;10.90;99.90;;;;;;4974662;28;20016;-84
2023/04/20 13:43:58;;;;;;;;;;;10.90;99.90;;;;;;4958782;28;20005;-86
2023/04/20 13:46:24;;;;;;;;;;;11.00;99.90;;;;;;4975085;28;19926;-84
2023/04/20 13:48:50;;;;;;;;;;;11.20;99.90;;;;;;4974458;28;19948;-84
2023/04/20 13:51:15;;;;;;;;;;;11.20;99.90;;;;;;4974181;28;20028;-85
2023/04/20 13:53:41;;;;;;;;;;;11.40;99.90;;;;;;4958048;28;19926;-85
2023/04/20 13:56:07;;;;;;;;;;;11.20;99.90;;;;;;4974032;28;19973;-85
2023/04/20 13:58:32;;;;;;;;;;;11.10;99.90;;;;;;4958275;28;19977;-86
2023/04/20 14:00:58;;;;;;;;;;;11.10;99.90;;;;;;4973676;28;20016;-85
2023/04/20 14:03:24;;;;;;;;;;;12.70;99.90;;;;;;4974971;28;19976;-86
2023/04/20 14:05:50;;;;;;;;;;;10.80;99.90;;;;;;4958213;28;20330;-83
2023/04/20 14:08:15;;;;;;;;;;;10.70;99.90;;;;;;4974516;28;19926;-87
2023/04/20 14:10:41;;;;;;;;;;;11.00;99.90;;;;;;4974094;28;19932;-89
2023/04/20 14:13:07;;;;;;;;;;;11.20;99.90;;;;;;4973713;28;20028;-88
2023/04/20 14:15:33;;;;;;;;;;;11.20;99.90;;;;;;4973951;28;19973;-87
2023/04/20 14:17:59;;;;;;;;;;;11.10;99.90;;;;;;4958619;28;19973;-89
2023/04/20 14:20:30;;;;;;;;;;;11.30;99.90;;;;;;4974631;28;19933;-88
2023/04/20 14:22:58;;;;;;;;;;;9.30;99.90;;;;;;4974725;28;19988;-89
2023/04/20 14:25:23;;;;;;;;;;;11.00;99.90;;;;;;4974388;28;19926;-89
2023/04/20 14:27:49;;;;;;;;;;;10.90;99.90;;;;;;4973955;28;19982;-88
2023/04/20 14:30:15;;;;;;;;;;;11.10;99.90;;;;;;4973911;28;19927;-89
2023/04/20 14:32:40;;;;;;;;;;;11.30;99.90;;;;;;4973266;28;20425;-88
2023/04/20 14:35:07;;;;;;;;;;;11.60;99.90;;;;;;4973867;28;20259;-87
2023/04/20 14:37:33;;;;;;;;;;;11.80;99.90;;;;;;4973743;28;19933;-88
2023/04/20 14:39:59;;;;;;;;;;;11.70;99.90;;;;;;4974513;28;19930;-89